createdAt,value
2022-08-12T00:02:02.810Z,3.35
2022-08-12T00:04:57.082Z,2.90
2022-08-12T00:08:03.472Z,3.17
2022-08-12T00:11:12.454Z,2.83
2022-08-12T00:14:18.753Z,3.10
2022-08-12T00:17:25.464Z,3.10
2022-08-12T00:20:32.951Z,2.90
2022-08-12T00:23:39.281Z,2.70
2022-08-12T00:26:45.799Z,3.13
2022-08-12T00:29:52.826Z,2.70
2022-08-12T00:32:59.598Z,2.70
2022-08-12T00:36:34.762Z,3.08
2022-08-12T00:39:37.695Z,3.10
2022-08-12T00:42:25.767Z,2.67
2022-08-12T00:45:14.318Z,3.15
2022-08-12T00:48:02.517Z,3.47
2022-08-12T00:50:56.598Z,2.83
2022-08-12T00:53:46.127Z,3.08
2022-08-12T00:56:36.714Z,3.28
2022-08-12T00:59:24.900Z,2.88
2022-08-12T01:02:22.248Z,3.35
2022-08-12T01:05:31.956Z,3.20
2022-08-12T01:08:44.622Z,3.92
2022-08-12T01:11:33.208Z,2.90
2022-08-12T01:14:25.142Z,3.47
2022-08-12T01:17:13.760Z,3.53
2022-08-12T01:20:07.017Z,3.13
2022-08-12T01:23:20.805Z,3.15
2022-08-12T01:26:16.735Z,3.45
2022-08-12T01:29:07.475Z,2.95
2022-08-12T01:31:59.074Z,3.38
2022-08-12T01:34:55.981Z,3.10
2022-08-12T01:37:48.626Z,4.05
2022-08-12T01:40:40.438Z,3.25
2022-08-12T01:43:33.154Z,3.28
2022-08-12T01:46:31.029Z,2.65
2022-08-12T01:49:41.226Z,3.00
2022-08-12T01:52:45.435Z,3.80
2022-08-12T01:55:38.286Z,3.53
2022-08-12T01:58:51.353Z,3.50
2022-08-12T02:01:42.694Z,3.50
2022-08-12T02:04:57.992Z,3.47
2022-08-12T02:08:19.045Z,3.85
2022-08-12T02:14:21.346Z,3.58
2022-08-12T02:17:55.497Z,3.80
2022-08-12T02:20:51.474Z,3.55
2022-08-12T02:24:19.584Z,3.35
2022-08-12T02:27:10.188Z,2.90
2022-08-12T02:29:58.372Z,3.03
2022-08-12T02:32:49.843Z,3.20
2022-08-12T02:35:39.791Z,3.60
2022-08-12T02:38:30.244Z,3.50
2022-08-12T02:41:22.291Z,3.80
2022-08-12T02:44:11.714Z,3.72
2022-08-12T02:47:04.131Z,3.47
2022-08-12T02:49:55.955Z,3.40
2022-08-12T02:52:44.825Z,3.88
2022-08-12T02:55:36.982Z,3.60
2022-08-12T02:58:33.327Z,3.47
2022-08-12T03:01:27.763Z,3.40
2022-08-12T03:04:24.392Z,3.80
2022-08-12T03:07:21.111Z,3.40
2022-08-12T03:10:17.863Z,3.80
2022-08-12T03:13:09.275Z,3.58
2022-08-12T03:15:58.882Z,3.78
2022-08-12T03:18:47.878Z,3.97
2022-08-12T03:22:05.670Z,4.50
2022-08-12T03:24:47.899Z,4.00
2022-08-12T03:27:40.431Z,4.73
2022-08-12T03:30:31.433Z,3.90
2022-08-12T03:36:09.950Z,4.53
2022-08-12T03:39:35.215Z,3.97
2022-08-12T03:42:39.791Z,3.92
2022-08-12T03:45:51.997Z,3.90
2022-08-12T03:48:59.020Z,4.63
2022-08-12T03:52:05.725Z,4.00
2022-08-12T03:55:11.611Z,4.15
2022-08-12T03:58:19.922Z,4.13
2022-08-12T04:01:08.957Z,3.90
2022-08-12T04:03:58.056Z,3.47
2022-08-12T04:06:46.262Z,4.53
2022-08-12T04:09:34.869Z,4.15
2022-08-12T04:12:40.630Z,3.72
2022-08-12T04:15:32.573Z,4.07
2022-08-12T04:18:21.284Z,3.80
2022-08-12T04:21:09.983Z,4.18
2022-08-12T04:23:59.590Z,3.63
2022-08-12T04:26:48.027Z,4.32
2022-08-12T04:30:22.378Z,3.88
2022-08-12T04:32:49.874Z,3.97
2022-08-12T04:35:38.696Z,4.70
2022-08-12T04:38:28.364Z,4.30
2022-08-12T04:41:19.050Z,4.00
2022-08-12T04:44:08.065Z,4.00
2022-08-12T04:46:56.284Z,3.90
2022-08-12T04:49:49.241Z,3.88
2022-08-12T04:52:37.674Z,4.18
2022-08-12T04:55:26.217Z,3.67
2022-08-12T04:58:14.961Z,3.83
2022-08-12T05:01:03.451Z,3.90
2022-08-12T05:03:52.724Z,4.10
2022-08-12T05:06:42.669Z,3.95
2022-08-12T05:09:58.981Z,3.78
2022-08-12T05:12:43.143Z,3.95
2022-08-12T05:15:31.653Z,4.00
2022-08-12T05:18:21.893Z,3.95
2022-08-12T05:21:10.761Z,3.70
2022-08-12T05:24:00.874Z,4.40
2022-08-12T05:26:49.244Z,3.75
2022-08-12T05:30:05.235Z,3.55
2022-08-12T05:32:45.831Z,3.85
2022-08-12T05:35:36.929Z,3.60
2022-08-12T05:38:42.882Z,4.30
2022-08-12T05:41:35.262Z,3.50
2022-08-12T05:44:23.491Z,4.43
2022-08-12T05:47:12.457Z,4.00
2022-08-12T05:50:00.737Z,3.90
2022-08-12T05:52:48.971Z,3.90
2022-08-12T05:55:37.614Z,3.97
2022-08-12T05:58:27.198Z,3.90
2022-08-12T06:02:08.852Z,3.85
2022-08-12T06:04:23.601Z,4.47
2022-08-12T06:08:00.504Z,3.83
2022-08-12T06:10:32.009Z,4.25
2022-08-12T06:13:28.091Z,4.35
2022-08-12T06:16:32.724Z,3.85
2022-08-12T06:19:20.930Z,3.30
2022-08-12T06:22:09.143Z,3.33
2022-08-12T06:24:57.352Z,3.25
2022-08-12T06:28:07.840Z,3.13
2022-08-12T06:35:25.110Z,3.08
2022-08-12T06:37:14.167Z,4.18
2022-08-12T06:40:05.317Z,3.20
2022-08-12T06:42:52.874Z,2.83
2022-08-12T06:45:46.710Z,2.45
2022-08-12T06:48:35.751Z,2.00
2022-08-12T06:51:25.821Z,2.40
2022-08-12T06:54:14.083Z,2.75
2022-08-12T06:58:01.731Z,2.00
2022-08-12T07:00:32.602Z,1.85
2022-08-12T07:03:28.625Z,1.90
2022-08-12T07:06:16.952Z,2.08
2022-08-12T07:09:07.159Z,2.47
2022-08-12T07:11:55.448Z,2.35
2022-08-12T07:14:47.014Z,2.20
2022-08-12T07:17:37.720Z,2.22
2022-08-12T07:20:51.347Z,1.83
2022-08-12T07:23:39.342Z,1.48
2022-08-12T07:26:29.375Z,2.03
2022-08-12T07:29:18.717Z,1.95
2022-08-12T07:32:07.082Z,1.58
2022-08-12T07:34:55.441Z,1.83
2022-08-12T07:37:44.194Z,2.08
2022-08-12T07:40:32.669Z,1.80
2022-08-12T07:43:22.788Z,1.67
2022-08-12T07:46:15.156Z,1.60
2022-08-12T07:49:05.934Z,1.70
2022-08-12T07:51:54.126Z,2.20
2022-08-12T07:54:42.440Z,1.95
2022-08-12T07:57:32.505Z,1.35
2022-08-12T08:00:22.733Z,1.58
2022-08-12T08:03:13.054Z,1.77
2022-08-12T08:06:01.570Z,1.70
2022-08-12T08:08:49.849Z,1.63
2022-08-12T08:11:56.011Z,1.63
2022-08-12T08:14:44.885Z,1.80
2022-08-12T08:17:37.220Z,1.50
2022-08-12T08:20:28.496Z,1.65
2022-08-12T08:23:19.612Z,1.77
2022-08-12T08:26:10.367Z,1.75
2022-08-12T08:28:59.566Z,1.77
2022-08-12T08:31:50.770Z,1.50
2022-08-12T08:34:53.677Z,1.50
2022-08-12T08:37:46.982Z,1.33
2022-08-12T08:40:59.073Z,2.03
2022-08-12T08:43:47.321Z,1.58
2022-08-12T08:46:38.007Z,1.60
2022-08-12T08:49:27.059Z,1.42
2022-08-12T08:52:39.303Z,1.65
2022-08-12T08:55:37.484Z,1.25
2022-08-12T08:58:33.691Z,1.45
2022-08-12T09:01:22.645Z,1.38
2022-08-12T09:05:09.662Z,1.48
2022-08-12T09:07:44.193Z,1.67
2022-08-12T09:14:10.793Z,1.60
2022-08-12T09:16:50.047Z,1.48
2022-08-12T09:19:38.548Z,1.30
2022-08-12T09:22:30.154Z,1.20
2022-08-12T09:25:25.578Z,1.92
2022-08-12T09:28:14.400Z,1.30
2022-08-12T09:31:04.606Z,1.25
2022-08-12T09:34:25.569Z,1.30
2022-08-12T09:37:22.308Z,2.47
2022-08-12T09:41:02.203Z,1.08
2022-08-12T09:43:53.595Z,1.17
2022-08-12T09:46:42.890Z,1.23
2022-08-12T09:49:41.990Z,1.20
2022-08-12T09:52:31.970Z,1.20
2022-08-12T09:56:06.219Z,1.00
2022-08-12T10:02:42.274Z,0.98
2022-08-12T10:04:51.692Z,0.80
2022-08-12T10:07:40.915Z,2.00
2022-08-12T10:10:30.766Z,1.20
2022-08-12T10:13:40.340Z,1.30
2022-08-12T10:16:35.353Z,1.45
2022-08-12T10:19:36.217Z,1.27
2022-08-12T10:22:36.480Z,0.80
2022-08-12T10:26:35.749Z,0.77
2022-08-12T10:30:38.974Z,0.90
2022-08-12T10:32:43.673Z,0.80
2022-08-12T10:35:37.935Z,1.55
2022-08-12T10:38:36.337Z,1.02
2022-08-12T10:41:56.780Z,1.08
2022-08-12T10:44:47.621Z,1.00
2022-08-12T10:48:07.625Z,1.15
2022-08-12T10:51:01.980Z,1.60
2022-08-12T10:53:52.667Z,0.63
2022-08-12T10:56:48.844Z,0.90
2022-08-12T11:00:31.353Z,2.65
2022-08-12T11:04:20.810Z,1.35
2022-08-12T11:07:08.081Z,1.95
2022-08-12T11:09:11.414Z,0.85
2022-08-12T11:12:34.900Z,0.70
2022-08-12T11:15:21.209Z,0.50
2022-08-12T11:18:18.364Z,1.00
2022-08-12T11:21:07.245Z,1.13
2022-08-12T11:24:04.295Z,0.45
2022-08-12T11:26:53.085Z,0.47
2022-08-12T11:30:05.639Z,0.40
2022-08-12T11:32:51.165Z,0.70
2022-08-12T11:35:41.579Z,0.77
2022-08-12T11:38:31.235Z,0.50
2022-08-12T11:41:28.094Z,0.50
2022-08-12T11:44:36.904Z,0.60
2022-08-12T11:47:30.008Z,0.63
2022-08-12T11:50:20.278Z,0.55
2022-08-12T11:53:58.598Z,0.47
2022-08-12T11:56:16.650Z,0.82
2022-08-12T12:02:16.393Z,0.70
2022-08-12T12:05:09.646Z,0.50
2022-08-12T12:08:37.219Z,0.55
2022-08-12T12:11:09.220Z,0.45
2022-08-12T12:14:06.935Z,0.60
2022-08-12T12:16:58.813Z,0.63
2022-08-12T12:19:48.333Z,0.68
2022-08-12T12:22:38.218Z,0.40
2022-08-12T12:26:07.393Z,0.40
2022-08-12T12:28:37.692Z,0.30
2022-08-12T12:32:09.218Z,0.70
2022-08-12T12:34:35.791Z,0.40
2022-08-12T12:37:59.097Z,0.50
2022-08-12T12:40:35.687Z,0.60
2022-08-12T12:43:29.168Z,0.50
2022-08-12T12:46:31.397Z,0.52
2022-08-12T12:49:19.569Z,0.60
2022-08-12T12:52:19.400Z,0.50
2022-08-12T12:55:09.951Z,0.60
2022-08-12T12:58:01.286Z,0.40
2022-08-12T13:00:51.171Z,0.60
2022-08-12T13:06:38.438Z,0.60
2022-08-12T13:09:26.947Z,0.40
2022-08-12T13:12:24.772Z,0.50
2022-08-12T13:15:43.468Z,0.57
2022-08-12T13:18:28.638Z,0.93
2022-08-12T13:21:33.064Z,0.45
2022-08-12T13:24:24.744Z,0.50
2022-08-12T13:27:20.917Z,0.43
2022-08-12T13:30:12.465Z,0.80
2022-08-12T13:33:02.232Z,0.70
2022-08-12T13:36:06.320Z,0.52
2022-08-12T13:38:56.021Z,0.52
2022-08-12T13:41:44.712Z,0.60
2022-08-12T13:44:32.888Z,0.52
2022-08-12T13:47:22.593Z,0.50
2022-08-12T13:50:13.234Z,0.50
2022-08-12T13:53:06.292Z,0.65
2022-08-12T13:56:11.870Z,0.55
2022-08-12T13:59:01.387Z,0.50
2022-08-12T14:01:51.854Z,0.50
2022-08-12T14:04:44.841Z,0.80
2022-08-12T14:08:01.668Z,0.82
2022-08-12T14:10:53.325Z,0.82
2022-08-12T14:14:03.427Z,0.70
2022-08-12T14:16:51.297Z,0.55
2022-08-12T14:20:01.078Z,0.60
2022-08-12T14:22:51.783Z,0.70
2022-08-12T14:25:43.434Z,0.60
2022-08-12T14:28:35.148Z,0.68
2022-08-12T14:31:29.244Z,0.70
2022-08-12T14:34:20.574Z,0.57
2022-08-12T14:37:55.900Z,0.80
2022-08-12T14:40:27.774Z,0.63
2022-08-12T14:43:17.962Z,0.80
2022-08-12T14:48:56.744Z,0.63
2022-08-12T14:52:43.926Z,0.80
2022-08-12T14:58:02.554Z,0.75
2022-08-12T15:01:09.831Z,0.60
2022-08-12T15:04:00.619Z,0.88
2022-08-12T15:06:52.696Z,1.33
2022-08-12T15:09:41.345Z,2.40
2022-08-12T15:12:30.272Z,2.15
2022-08-12T15:15:20.466Z,1.90
2022-08-12T15:18:12.010Z,1.40
2022-08-12T15:21:05.493Z,1.20
2022-08-12T15:24:00.401Z,0.70
2022-08-12T15:26:48.631Z,0.80
2022-08-12T15:29:38.631Z,0.70
2022-08-12T15:32:32.082Z,0.60
2022-08-12T15:35:22.419Z,0.63
2022-08-12T15:41:06.849Z,0.63
2022-08-12T15:44:36.672Z,0.50
2022-08-12T15:49:59.962Z,0.60
2022-08-12T15:52:50.437Z,0.70
2022-08-12T15:58:35.876Z,0.70
2022-08-12T16:01:24.559Z,0.80
2022-08-12T16:04:13.072Z,1.00
2022-08-12T16:07:05.843Z,1.40
2022-08-12T16:10:08.265Z,1.52
2022-08-12T16:12:58.959Z,1.20
2022-08-12T16:16:01.683Z,1.20
2022-08-12T16:18:51.434Z,1.50
2022-08-12T16:21:52.946Z,1.17
2022-08-12T16:24:47.127Z,1.50
2022-08-12T16:27:42.691Z,1.38
2022-08-12T16:30:34.203Z,1.30
2022-08-12T16:36:18.696Z,1.30
2022-08-12T16:39:07.267Z,1.20
2022-08-12T16:41:57.095Z,1.20
2022-08-12T16:44:49.601Z,1.20
2022-08-12T16:47:58.775Z,1.20
2022-08-12T16:50:49.943Z,1.08
2022-08-12T16:53:44.074Z,1.25
2022-08-12T16:56:35.536Z,1.30
2022-08-12T16:59:53.387Z,1.52
2022-08-12T17:02:40.547Z,1.40
2022-08-12T17:05:31.182Z,0.85
2022-08-12T17:08:21.563Z,0.70
2022-08-12T17:11:18.115Z,0.90
2022-08-12T17:14:07.735Z,0.90
2022-08-12T17:16:57.153Z,0.70
2022-08-12T17:20:34.799Z,1.00
2022-08-12T17:22:56.481Z,0.73
2022-08-12T17:25:48.923Z,1.23
2022-08-12T17:28:39.015Z,1.00
2022-08-12T17:32:00.932Z,1.40
2022-08-12T17:34:57.985Z,1.35
2022-08-12T17:37:50.818Z,1.10
2022-08-12T17:40:46.476Z,1.13
2022-08-12T17:43:57.312Z,0.70
2022-08-12T17:46:44.909Z,0.80
2022-08-12T17:50:03.019Z,0.90
2022-08-12T17:52:59.178Z,0.80
2022-08-12T17:55:52.741Z,0.80
2022-08-12T17:58:42.781Z,0.80
2022-08-12T18:01:43.107Z,0.77
2022-08-12T18:04:35.642Z,0.80
2022-08-12T18:07:24.328Z,1.00
2022-08-12T18:10:42.684Z,0.93
2022-08-12T18:13:37.801Z,0.82
2022-08-12T18:16:32.093Z,1.00
2022-08-12T18:19:21.263Z,1.15
2022-08-12T18:22:09.460Z,0.85
2022-08-12T18:25:02.364Z,0.80
2022-08-12T18:28:12.327Z,0.80
2022-08-12T18:31:04.507Z,0.95
2022-08-12T18:33:53.363Z,0.93
2022-08-12T18:36:47.186Z,0.90
2022-08-12T18:39:57.503Z,0.98
2022-08-12T18:42:54.054Z,1.30
2022-08-12T18:45:57.051Z,0.93
2022-08-12T18:48:46.381Z,1.23
2022-08-12T18:51:48.773Z,0.85
2022-08-12T18:54:49.528Z,1.05
2022-08-12T18:58:06.825Z,1.05
2022-08-12T19:00:54.513Z,1.20
2022-08-12T19:03:42.721Z,1.02
2022-08-12T19:06:36.439Z,1.20
2022-08-12T19:09:39.044Z,1.30
2022-08-12T19:13:03.393Z,1.52
2022-08-12T19:16:01.619Z,1.40
2022-08-12T19:18:50.404Z,1.25
2022-08-12T19:21:40.958Z,1.20
2022-08-12T19:25:03.161Z,1.58
2022-08-12T19:27:55.536Z,1.70
2022-08-12T19:31:03.512Z,1.80
2022-08-12T19:34:25.625Z,2.13
2022-08-12T19:37:06.116Z,1.60
2022-08-12T19:40:09.790Z,2.28
2022-08-12T19:43:19.189Z,1.75
2022-08-12T19:46:09.259Z,1.83
2022-08-12T19:49:03.079Z,1.52
2022-08-12T19:51:52.605Z,1.92
2022-08-12T19:54:44.037Z,1.90
2022-08-12T19:58:02.289Z,1.83
2022-08-12T20:00:54.395Z,1.67
2022-08-12T20:03:47.858Z,1.70
2022-08-12T20:06:51.595Z,1.63
2022-08-12T20:09:43.060Z,1.63
2022-08-12T20:12:44.691Z,2.08
2022-08-12T20:18:53.474Z,2.90
2022-08-12T20:21:42.606Z,2.47
2022-08-12T20:24:36.970Z,2.10
2022-08-12T20:27:29.518Z,2.42
2022-08-12T20:30:52.954Z,2.60
2022-08-12T20:33:56.503Z,3.45
2022-08-12T20:39:53.505Z,2.58
2022-08-12T20:42:43.250Z,1.88
2022-08-12T20:45:40.026Z,2.22
2022-08-12T20:48:43.417Z,2.13
2022-08-12T20:51:54.613Z,2.00
2022-08-12T20:54:50.227Z,2.20
2022-08-12T20:58:02.804Z,2.08
2022-08-12T21:00:46.693Z,2.20
2022-08-12T21:03:52.583Z,2.35
2022-08-12T21:07:04.472Z,1.98
2022-08-12T21:09:59.615Z,1.90
2022-08-12T21:12:47.816Z,1.57
2022-08-12T21:15:54.964Z,1.67
2022-08-12T21:18:50.742Z,2.47
2022-08-12T21:21:46.824Z,2.38
2022-08-12T21:24:46.412Z,2.28
2022-08-12T21:27:57.976Z,1.60
2022-08-12T21:31:10.963Z,2.28
2022-08-12T21:34:07.687Z,1.67
2022-08-12T21:36:59.980Z,1.80
2022-08-12T21:39:52.253Z,1.90
2022-08-12T21:45:48.179Z,1.45
2022-08-12T21:48:39.946Z,1.90
2022-08-12T21:51:49.783Z,1.77
2022-08-12T21:54:40.652Z,1.80
2022-08-12T21:57:36.524Z,2.10
2022-08-12T22:04:04.112Z,3.17
2022-08-12T22:06:55.495Z,1.60
2022-08-12T22:09:47.537Z,1.70
2022-08-12T22:12:45.943Z,1.77
2022-08-12T22:15:34.311Z,2.13
2022-08-12T22:18:24.818Z,1.70
2022-08-12T22:21:17.474Z,1.70
2022-08-12T22:24:09.598Z,2.58
2022-08-12T22:27:31.736Z,1.85
2022-08-12T22:30:38.759Z,1.80
2022-08-12T22:33:28.633Z,1.83
2022-08-12T22:36:21.341Z,1.70
2022-08-12T22:39:15.719Z,1.50
2022-08-12T22:42:21.840Z,1.80
2022-08-12T22:45:30.038Z,2.30
2022-08-12T22:48:26.651Z,2.35
2022-08-12T22:51:19.234Z,2.25
2022-08-12T22:54:35.155Z,2.03
2022-08-12T22:57:17.722Z,1.88
2022-08-12T23:00:27.044Z,1.73
2022-08-12T23:03:48.031Z,2.10
2022-08-12T23:06:27.007Z,1.95
2022-08-12T23:09:16.409Z,1.77
2022-08-12T23:12:05.384Z,2.10
2022-08-12T23:14:52.761Z,2.00
2022-08-12T23:17:41.801Z,1.90
2022-08-12T23:20:31.897Z,1.83
2022-08-12T23:23:21.445Z,1.80
2022-08-12T23:26:09.705Z,2.08
2022-08-12T23:29:29.966Z,1.60
2022-08-12T23:32:35.892Z,1.80
2022-08-12T23:35:24.913Z,1.83
2022-08-12T23:38:35.464Z,1.88
2022-08-12T23:44:19.767Z,1.52
2022-08-12T23:47:09.889Z,1.80
2022-08-12T23:50:00.643Z,1.90
2022-08-12T23:52:51.735Z,2.17
2022-08-12T23:55:42.176Z,2.08
2022-08-12T23:58:32.879Z,2.10
